sensor_id;sensor_type;location;lat;lon;timestamp;P1;durP1;ratioP1;P2;durP2;ratioP2
12840;SDS011;6487;48.626;12.486;2023-03-16T00:00:07;4.37;;;3.17;;
12840;SDS011;6487;48.626;12.486;2023-03-16T00:06:45;3.53;;;3.13;;
12840;SDS011;6487;48.626;12.486;2023-03-16T00:09:16;5.13;;;3.37;;
12840;SDS011;6487;48.626;12.486;2023-03-16T00:11:47;4.03;;;3.53;;
12840;SDS011;6487;48.626;12.486;2023-03-16T00:14:17;3.80;;;3.40;;
12840;SDS011;6487;48.626;12.486;2023-03-16T00:16:48;4.00;;;3.50;;
12840;SDS011;6487;48.626;12.486;2023-03-16T00:19:18;4.30;;;3.20;;
12840;SDS011;6487;48.626;12.486;2023-03-16T00:21:48;4.23;;;3.53;;
12840;SDS011;6487;48.626;12.486;2023-03-16T00:24:19;3.57;;;3.23;;
12840;SDS011;6487;48.626;12.486;2023-03-16T00:26:50;4.27;;;3.60;;
12840;SDS011;6487;48.626;12.486;2023-03-16T00:29:21;6.37;;;4.20;;
12840;SDS011;6487;48.626;12.486;2023-03-16T00:31:49;6.27;;;3.80;;
12840;SDS011;6487;48.626;12.486;2023-03-16T00:34:18;3.80;;;3.27;;
12840;SDS011;6487;48.626;12.486;2023-03-16T00:36:48;3.70;;;3.10;;
12840;SDS011;6487;48.626;12.486;2023-03-16T00:39:19;7.73;;;3.90;;
12840;SDS011;6487;48.626;12.486;2023-03-16T00:41:50;5.73;;;4.30;;
12840;SDS011;6487;48.626;12.486;2023-03-16T00:44:25;5.37;;;4.57;;
12840;SDS011;6487;48.626;12.486;2023-03-16T00:47:11;4.90;;;4.40;;
12840;SDS011;6487;48.626;12.486;2023-03-16T00:49:41;4.33;;;3.67;;
12840;SDS011;6487;48.626;12.486;2023-03-16T00:52:11;6.47;;;3.80;;
12840;SDS011;6487;48.626;12.486;2023-03-16T00:54:41;4.80;;;3.67;;
12840;SDS011;6487;48.626;12.486;2023-03-16T00:57:10;3.90;;;3.40;;
12840;SDS011;6487;48.626;12.486;2023-03-16T00:59:48;3.87;;;3.20;;
12840;SDS011;6487;48.626;12.486;2023-03-16T01:02:20;5.13;;;3.33;;
12840;SDS011;6487;48.626;12.486;2023-03-16T01:04:50;4.97;;;4.00;;
12840;SDS011;6487;48.626;12.486;2023-03-16T01:07:20;4.07;;;3.27;;
12840;SDS011;6487;48.626;12.486;2023-03-16T01:09:48;4.47;;;3.40;;
12840;SDS011;6487;48.626;12.486;2023-03-16T01:12:17;5.20;;;3.40;;
12840;SDS011;6487;48.626;12.486;2023-03-16T01:14:50;4.77;;;3.40;;
12840;SDS011;6487;48.626;12.486;2023-03-16T01:17:19;4.23;;;3.50;;
12840;SDS011;6487;48.626;12.486;2023-03-16T01:19:47;3.60;;;3.30;;
12840;SDS011;6487;48.626;12.486;2023-03-16T01:22:16;4.60;;;4.20;;
12840;SDS011;6487;48.626;12.486;2023-03-16T01:24:45;4.47;;;4.07;;
12840;SDS011;6487;48.626;12.486;2023-03-16T01:27:16;4.80;;;3.90;;
12840;SDS011;6487;48.626;12.486;2023-03-16T01:29:45;5.03;;;4.00;;
12840;SDS011;6487;48.626;12.486;2023-03-16T01:32:15;5.27;;;4.10;;
12840;SDS011;6487;48.626;12.486;2023-03-16T01:34:46;5.03;;;3.97;;
12840;SDS011;6487;48.626;12.486;2023-03-16T01:37:14;4.07;;;3.67;;
12840;SDS011;6487;48.626;12.486;2023-03-16T01:39:42;4.20;;;3.80;;
12840;SDS011;6487;48.626;12.486;2023-03-16T01:42:11;4.77;;;3.77;;
12840;SDS011;6487;48.626;12.486;2023-03-16T01:44:49;5.50;;;4.00;;
12840;SDS011;6487;48.626;12.486;2023-03-16T01:47:23;4.83;;;3.70;;
12840;SDS011;6487;48.626;12.486;2023-03-16T01:49:51;4.23;;;3.83;;
12840;SDS011;6487;48.626;12.486;2023-03-16T01:52:23;5.17;;;4.03;;
12840;SDS011;6487;48.626;12.486;2023-03-16T01:54:56;4.80;;;4.17;;
12840;SDS011;6487;48.626;12.486;2023-03-16T01:57:29;6.13;;;4.20;;
12840;SDS011;6487;48.626;12.486;2023-03-16T02:00:05;4.70;;;4.20;;
12840;SDS011;6487;48.626;12.486;2023-03-16T02:02:45;4.47;;;3.87;;
12840;SDS011;6487;48.626;12.486;2023-03-16T02:05:18;4.67;;;4.17;;
12840;SDS011;6487;48.626;12.486;2023-03-16T02:07:50;5.70;;;4.57;;
12840;SDS011;6487;48.626;12.486;2023-03-16T02:10:24;5.00;;;4.23;;
12840;SDS011;6487;48.626;12.486;2023-03-16T02:12:58;5.73;;;4.50;;
12840;SDS011;6487;48.626;12.486;2023-03-16T02:15:27;5.43;;;4.93;;
12840;SDS011;6487;48.626;12.486;2023-03-16T02:17:56;5.07;;;4.57;;
12840;SDS011;6487;48.626;12.486;2023-03-16T02:20:30;4.70;;;4.30;;
12840;SDS011;6487;48.626;12.486;2023-03-16T02:23:04;4.57;;;4.17;;
12840;SDS011;6487;48.626;12.486;2023-03-16T02:25:44;5.20;;;4.73;;
12840;SDS011;6487;48.626;12.486;2023-03-16T02:28:21;4.73;;;4.23;;
12840;SDS011;6487;48.626;12.486;2023-03-16T02:31:00;6.07;;;5.00;;
12840;SDS011;6487;48.626;12.486;2023-03-16T02:33:29;4.60;;;4.20;;
12840;SDS011;6487;48.626;12.486;2023-03-16T02:36:03;7.43;;;4.97;;
12840;SDS011;6487;48.626;12.486;2023-03-16T02:38:32;5.03;;;4.53;;
12840;SDS011;6487;48.626;12.486;2023-03-16T02:41:05;5.00;;;4.50;;
12840;SDS011;6487;48.626;12.486;2023-03-16T02:43:39;8.13;;;5.37;;
12840;SDS011;6487;48.626;12.486;2023-03-16T02:46:14;5.40;;;4.90;;
12840;SDS011;6487;48.626;12.486;2023-03-16T02:48:44;6.07;;;4.90;;
12840;SDS011;6487;48.626;12.486;2023-03-16T02:51:19;5.13;;;4.63;;
12840;SDS011;6487;48.626;12.486;2023-03-16T02:53:48;5.27;;;4.77;;
12840;SDS011;6487;48.626;12.486;2023-03-16T02:56:16;5.00;;;4.50;;
12840;SDS011;6487;48.626;12.486;2023-03-16T02:58:44;6.20;;;5.00;;
12840;SDS011;6487;48.626;12.486;2023-03-16T03:01:14;5.37;;;4.90;;
12840;SDS011;6487;48.626;12.486;2023-03-16T03:03:42;6.47;;;5.40;;
12840;SDS011;6487;48.626;12.486;2023-03-16T03:06:11;5.97;;;5.00;;
12840;SDS011;6487;48.626;12.486;2023-03-16T03:08:39;6.03;;;5.03;;
12840;SDS011;6487;48.626;12.486;2023-03-16T03:11:10;6.17;;;5.57;;
12840;SDS011;6487;48.626;12.486;2023-03-16T03:13:39;5.17;;;4.40;;
12840;SDS011;6487;48.626;12.486;2023-03-16T03:16:09;6.53;;;5.33;;
12840;SDS011;6487;48.626;12.486;2023-03-16T03:18:39;6.43;;;5.03;;
12840;SDS011;6487;48.626;12.486;2023-03-16T03:21:08;5.87;;;4.37;;
12840;SDS011;6487;48.626;12.486;2023-03-16T03:23:36;5.20;;;4.70;;
12840;SDS011;6487;48.626;12.486;2023-03-16T03:26:04;4.90;;;4.50;;
12840;SDS011;6487;48.626;12.486;2023-03-16T03:28:33;5.13;;;4.63;;
12840;SDS011;6487;48.626;12.486;2023-03-16T03:31:01;6.13;;;4.97;;
12840;SDS011;6487;48.626;12.486;2023-03-16T03:33:29;5.83;;;4.77;;
12840;SDS011;6487;48.626;12.486;2023-03-16T03:36:00;6.77;;;5.43;;
12840;SDS011;6487;48.626;12.486;2023-03-16T03:38:28;6.30;;;4.33;;
12840;SDS011;6487;48.626;12.486;2023-03-16T03:40:57;5.67;;;5.13;;
12840;SDS011;6487;48.626;12.486;2023-03-16T03:43:25;5.80;;;5.07;;
12840;SDS011;6487;48.626;12.486;2023-03-16T03:45:54;8.23;;;5.57;;
12840;SDS011;6487;48.626;12.486;2023-03-16T03:48:24;6.50;;;5.80;;
12840;SDS011;6487;48.626;12.486;2023-03-16T03:50:53;10.27;;;6.87;;
12840;SDS011;6487;48.626;12.486;2023-03-16T03:53:23;9.13;;;6.73;;
12840;SDS011;6487;48.626;12.486;2023-03-16T03:55:51;7.10;;;6.10;;
12840;SDS011;6487;48.626;12.486;2023-03-16T03:58:19;8.47;;;6.23;;
12840;SDS011;6487;48.626;12.486;2023-03-16T04:00:48;9.23;;;5.90;;
12840;SDS011;6487;48.626;12.486;2023-03-16T04:03:16;8.23;;;5.93;;
12840;SDS011;6487;48.626;12.486;2023-03-16T04:05:44;7.20;;;5.80;;
12840;SDS011;6487;48.626;12.486;2023-03-16T04:08:13;8.87;;;6.50;;
12840;SDS011;6487;48.626;12.486;2023-03-16T04:10:42;8.77;;;6.67;;
12840;SDS011;6487;48.626;12.486;2023-03-16T04:13:11;7.60;;;6.30;;
12840;SDS011;6487;48.626;12.486;2023-03-16T04:15:39;9.67;;;6.73;;
12840;SDS011;6487;48.626;12.486;2023-03-16T04:18:07;10.90;;;7.07;;
12840;SDS011;6487;48.626;12.486;2023-03-16T04:20:35;10.73;;;7.73;;
12840;SDS011;6487;48.626;12.486;2023-03-16T04:23:04;9.37;;;6.70;;
12840;SDS011;6487;48.626;12.486;2023-03-16T04:25:32;8.63;;;6.90;;
12840;SDS011;6487;48.626;12.486;2023-03-16T04:28:06;12.13;;;8.03;;
12840;SDS011;6487;48.626;12.486;2023-03-16T04:30:34;10.30;;;7.50;;
12840;SDS011;6487;48.626;12.486;2023-03-16T04:33:03;9.13;;;7.87;;
12840;SDS011;6487;48.626;12.486;2023-03-16T04:35:31;9.97;;;7.43;;
12840;SDS011;6487;48.626;12.486;2023-03-16T04:38:00;9.97;;;7.43;;
12840;SDS011;6487;48.626;12.486;2023-03-16T04:40:28;9.03;;;7.17;;
12840;SDS011;6487;48.626;12.486;2023-03-16T04:43:00;8.30;;;7.20;;
12840;SDS011;6487;48.626;12.486;2023-03-16T04:45:30;9.50;;;7.63;;
12840;SDS011;6487;48.626;12.486;2023-03-16T04:47:58;9.57;;;6.83;;
12840;SDS011;6487;48.626;12.486;2023-03-16T04:50:27;8.70;;;7.23;;
12840;SDS011;6487;48.626;12.486;2023-03-16T04:52:56;7.37;;;6.47;;
12840;SDS011;6487;48.626;12.486;2023-03-16T04:55:24;9.43;;;7.07;;
12840;SDS011;6487;48.626;12.486;2023-03-16T04:57:53;8.50;;;6.90;;
12840;SDS011;6487;48.626;12.486;2023-03-16T05:00:22;6.80;;;6.10;;
12840;SDS011;6487;48.626;12.486;2023-03-16T05:02:52;7.57;;;6.77;;
12840;SDS011;6487;48.626;12.486;2023-03-16T05:05:21;7.37;;;6.53;;
12840;SDS011;6487;48.626;12.486;2023-03-16T05:07:49;8.93;;;6.60;;
12840;SDS011;6487;48.626;12.486;2023-03-16T05:10:17;7.30;;;6.07;;
12840;SDS011;6487;48.626;12.486;2023-03-16T05:12:47;9.23;;;7.10;;
12840;SDS011;6487;48.626;12.486;2023-03-16T05:15:15;9.07;;;7.50;;
12840;SDS011;6487;48.626;12.486;2023-03-16T05:17:47;7.87;;;6.80;;
12840;SDS011;6487;48.626;12.486;2023-03-16T05:20:17;9.90;;;7.77;;
12840;SDS011;6487;48.626;12.486;2023-03-16T05:22:48;8.47;;;6.90;;
12840;SDS011;6487;48.626;12.486;2023-03-16T05:25:18;9.20;;;7.50;;
12840;SDS011;6487;48.626;12.486;2023-03-16T05:27:47;7.93;;;6.90;;
12840;SDS011;6487;48.626;12.486;2023-03-16T05:30:19;8.43;;;7.10;;
12840;SDS011;6487;48.626;12.486;2023-03-16T05:32:47;10.17;;;7.23;;
12840;SDS011;6487;48.626;12.486;2023-03-16T05:35:17;7.50;;;6.80;;
12840;SDS011;6487;48.626;12.486;2023-03-16T05:37:49;8.67;;;7.37;;
12840;SDS011;6487;48.626;12.486;2023-03-16T05:40:17;10.40;;;7.33;;
12840;SDS011;6487;48.626;12.486;2023-03-16T05:42:48;8.67;;;7.73;;
12840;SDS011;6487;48.626;12.486;2023-03-16T05:45:27;9.67;;;8.00;;
12840;SDS011;6487;48.626;12.486;2023-03-16T05:48:00;8.93;;;7.87;;
12840;SDS011;6487;48.626;12.486;2023-03-16T05:50:32;10.40;;;7.17;;
12840;SDS011;6487;48.626;12.486;2023-03-16T05:53:00;9.00;;;7.60;;
12840;SDS011;6487;48.626;12.486;2023-03-16T05:55:29;9.03;;;7.93;;
12840;SDS011;6487;48.626;12.486;2023-03-16T05:57:57;8.40;;;7.40;;
12840;SDS011;6487;48.626;12.486;2023-03-16T06:00:26;10.50;;;7.80;;
12840;SDS011;6487;48.626;12.486;2023-03-16T06:02:55;11.50;;;8.80;;
12840;SDS011;6487;48.626;12.486;2023-03-16T06:05:26;11.07;;;9.00;;
12840;SDS011;6487;48.626;12.486;2023-03-16T06:08:08;11.17;;;9.03;;
12840;SDS011;6487;48.626;12.486;2023-03-16T06:10:36;13.97;;;9.50;;
12840;SDS011;6487;48.626;12.486;2023-03-16T06:13:04;13.63;;;11.30;;
12840;SDS011;6487;48.626;12.486;2023-03-16T06:15:33;13.67;;;9.47;;
12840;SDS011;6487;48.626;12.486;2023-03-16T06:18:01;11.20;;;8.53;;
12840;SDS011;6487;48.626;12.486;2023-03-16T06:20:31;13.50;;;8.70;;
12840;SDS011;6487;48.626;12.486;2023-03-16T06:23:00;11.80;;;9.63;;
12840;SDS011;6487;48.626;12.486;2023-03-16T06:25:29;13.20;;;10.40;;
12840;SDS011;6487;48.626;12.486;2023-03-16T06:27:57;12.57;;;10.13;;
12840;SDS011;6487;48.626;12.486;2023-03-16T06:30:26;13.70;;;10.20;;
12840;SDS011;6487;48.626;12.486;2023-03-16T06:32:55;12.30;;;8.20;;
12840;SDS011;6487;48.626;12.486;2023-03-16T06:35:25;12.83;;;9.70;;
12840;SDS011;6487;48.626;12.486;2023-03-16T06:37:55;12.10;;;9.33;;
12840;SDS011;6487;48.626;12.486;2023-03-16T06:40:23;12.13;;;8.80;;
12840;SDS011;6487;48.626;12.486;2023-03-16T06:42:52;12.67;;;9.60;;
12840;SDS011;6487;48.626;12.486;2023-03-16T06:45:20;14.03;;;9.33;;
12840;SDS011;6487;48.626;12.486;2023-03-16T06:47:50;16.67;;;9.83;;
12840;SDS011;6487;48.626;12.486;2023-03-16T06:50:19;11.80;;;9.37;;
12840;SDS011;6487;48.626;12.486;2023-03-16T06:52:47;12.97;;;9.87;;
12840;SDS011;6487;48.626;12.486;2023-03-16T06:55:17;15.20;;;8.97;;
12840;SDS011;6487;48.626;12.486;2023-03-16T06:57:48;16.17;;;10.90;;
12840;SDS011;6487;48.626;12.486;2023-03-16T07:00:17;11.40;;;9.10;;
12840;SDS011;6487;48.626;12.486;2023-03-16T07:02:46;13.03;;;11.10;;
12840;SDS011;6487;48.626;12.486;2023-03-16T07:05:15;17.23;;;10.23;;
12840;SDS011;6487;48.626;12.486;2023-03-16T07:07:43;15.07;;;11.17;;
12840;SDS011;6487;48.626;12.486;2023-03-16T07:10:12;12.73;;;10.20;;
12840;SDS011;6487;48.626;12.486;2023-03-16T07:12:44;15.13;;;10.07;;
12840;SDS011;6487;48.626;12.486;2023-03-16T07:15:13;13.03;;;9.60;;
12840;SDS011;6487;48.626;12.486;2023-03-16T07:17:41;13.33;;;10.37;;
12840;SDS011;6487;48.626;12.486;2023-03-16T07:20:10;12.53;;;9.60;;
12840;SDS011;6487;48.626;12.486;2023-03-16T07:22:39;12.00;;;9.67;;
12840;SDS011;6487;48.626;12.486;2023-03-16T07:25:08;12.80;;;9.73;;
12840;SDS011;6487;48.626;12.486;2023-03-16T07:27:38;12.33;;;8.97;;
12840;SDS011;6487;48.626;12.486;2023-03-16T07:30:09;13.10;;;9.00;;
12840;SDS011;6487;48.626;12.486;2023-03-16T07:32:39;12.83;;;9.40;;
12840;SDS011;6487;48.626;12.486;2023-03-16T07:35:08;12.17;;;9.37;;
12840;SDS011;6487;48.626;12.486;2023-03-16T07:37:39;13.53;;;10.33;;
12840;SDS011;6487;48.626;12.486;2023-03-16T07:40:08;14.43;;;10.73;;
12840;SDS011;6487;48.626;12.486;2023-03-16T07:42:41;12.10;;;9.50;;
12840;SDS011;6487;48.626;12.486;2023-03-16T07:45:09;14.17;;;10.33;;
12840;SDS011;6487;48.626;12.486;2023-03-16T07:47:39;13.37;;;10.73;;
12840;SDS011;6487;48.626;12.486;2023-03-16T07:50:08;15.70;;;10.97;;
12840;SDS011;6487;48.626;12.486;2023-03-16T07:52:38;13.63;;;10.53;;
12840;SDS011;6487;48.626;12.486;2023-03-16T07:55:07;15.23;;;10.87;;
12840;SDS011;6487;48.626;12.486;2023-03-16T07:57:37;11.83;;;9.83;;
12840;SDS011;6487;48.626;12.486;2023-03-16T08:00:09;14.10;;;10.53;;
12840;SDS011;6487;48.626;12.486;2023-03-16T08:02:39;13.37;;;10.67;;
12840;SDS011;6487;48.626;12.486;2023-03-16T08:05:08;14.23;;;10.93;;
12840;SDS011;6487;48.626;12.486;2023-03-16T08:07:36;13.23;;;10.50;;
12840;SDS011;6487;48.626;12.486;2023-03-16T08:10:05;12.77;;;10.67;;
12840;SDS011;6487;48.626;12.486;2023-03-16T08:12:34;14.50;;;10.23;;
12840;SDS011;6487;48.626;12.486;2023-03-16T08:15:03;12.90;;;10.43;;
12840;SDS011;6487;48.626;12.486;2023-03-16T08:17:34;15.20;;;10.80;;
12840;SDS011;6487;48.626;12.486;2023-03-16T08:20:03;12.73;;;10.50;;
12840;SDS011;6487;48.626;12.486;2023-03-16T08:22:36;13.80;;;11.10;;
12840;SDS011;6487;48.626;12.486;2023-03-16T08:25:07;16.33;;;12.23;;
12840;SDS011;6487;48.626;12.486;2023-03-16T08:27:36;17.27;;;12.10;;
12840;SDS011;6487;48.626;12.486;2023-03-16T08:30:05;16.37;;;11.87;;
12840;SDS011;6487;48.626;12.486;2023-03-16T08:32:38;14.80;;;12.27;;
12840;SDS011;6487;48.626;12.486;2023-03-16T08:35:08;14.37;;;10.67;;
12840;SDS011;6487;48.626;12.486;2023-03-16T08:37:39;13.73;;;11.57;;
12840;SDS011;6487;48.626;12.486;2023-03-16T08:40:08;15.40;;;11.70;;
12840;SDS011;6487;48.626;12.486;2023-03-16T08:42:40;14.47;;;11.30;;
12840;SDS011;6487;48.626;12.486;2023-03-16T08:45:10;21.63;;;12.60;;
12840;SDS011;6487;48.626;12.486;2023-03-16T08:47:41;17.97;;;13.90;;
12840;SDS011;6487;48.626;12.486;2023-03-16T08:50:10;17.23;;;13.40;;
12840;SDS011;6487;48.626;12.486;2023-03-16T08:52:40;16.83;;;13.73;;
12840;SDS011;6487;48.626;12.486;2023-03-16T08:55:09;13.90;;;11.90;;
12840;SDS011;6487;48.626;12.486;2023-03-16T08:57:38;18.93;;;14.03;;
12840;SDS011;6487;48.626;12.486;2023-03-16T09:00:07;18.63;;;13.83;;
12840;SDS011;6487;48.626;12.486;2023-03-16T09:02:38;21.87;;;14.67;;
12840;SDS011;6487;48.626;12.486;2023-03-16T09:05:08;18.50;;;14.73;;
12840;SDS011;6487;48.626;12.486;2023-03-16T09:07:38;19.80;;;13.67;;
12840;SDS011;6487;48.626;12.486;2023-03-16T09:10:08;15.33;;;13.27;;
12840;SDS011;6487;48.626;12.486;2023-03-16T09:12:41;17.37;;;13.43;;
12840;SDS011;6487;48.626;12.486;2023-03-16T09:15:10;17.27;;;13.80;;
12840;SDS011;6487;48.626;12.486;2023-03-16T09:17:40;16.07;;;14.00;;
12840;SDS011;6487;48.626;12.486;2023-03-16T09:20:12;15.43;;;13.83;;
12840;SDS011;6487;48.626;12.486;2023-03-16T09:22:51;15.50;;;12.53;;
12840;SDS011;6487;48.626;12.486;2023-03-16T09:25:21;14.20;;;12.47;;
12840;SDS011;6487;48.626;12.486;2023-03-16T09:27:56;18.93;;;14.10;;
12840;SDS011;6487;48.626;12.486;2023-03-16T09:30:25;16.83;;;13.90;;
12840;SDS011;6487;48.626;12.486;2023-03-16T09:32:55;14.93;;;12.30;;
12840;SDS011;6487;48.626;12.486;2023-03-16T09:35:24;13.17;;;11.87;;
12840;SDS011;6487;48.626;12.486;2023-03-16T09:37:53;13.90;;;12.43;;
12840;SDS011;6487;48.626;12.486;2023-03-16T09:40:32;13.90;;;12.50;;
12840;SDS011;6487;48.626;12.486;2023-03-16T09:43:09;13.73;;;12.43;;
12840;SDS011;6487;48.626;12.486;2023-03-16T09:45:52;14.67;;;13.07;;
12840;SDS011;6487;48.626;12.486;2023-03-16T09:48:31;13.87;;;12.47;;
12840;SDS011;6487;48.626;12.486;2023-03-16T09:51:04;14.10;;;12.70;;
12840;SDS011;6487;48.626;12.486;2023-03-16T09:53:37;13.23;;;11.93;;
12840;SDS011;6487;48.626;12.486;2023-03-16T09:56:08;13.03;;;11.83;;
12840;SDS011;6487;48.626;12.486;2023-03-16T09:59:15;12.07;;;10.97;;
12840;SDS011;6487;48.626;12.486;2023-03-16T10:05:19;12.63;;;11.33;;
12840;SDS011;6487;48.626;12.486;2023-03-16T10:07:55;12.23;;;10.37;;
12840;SDS011;6487;48.626;12.486;2023-03-16T10:13:53;11.93;;;10.73;;
12840;SDS011;6487;48.626;12.486;2023-03-16T10:16:29;10.43;;;9.50;;
12840;SDS011;6487;48.626;12.486;2023-03-16T10:19:07;10.87;;;9.87;;
12840;SDS011;6487;48.626;12.486;2023-03-16T10:21:40;11.70;;;10.60;;
12840;SDS011;6487;48.626;12.486;2023-03-16T10:24:15;11.30;;;10.30;;
12840;SDS011;6487;48.626;12.486;2023-03-16T10:26:54;10.87;;;9.87;;
12840;SDS011;6487;48.626;12.486;2023-03-16T10:29:33;10.60;;;9.63;;
12840;SDS011;6487;48.626;12.486;2023-03-16T10:32:10;10.90;;;10.00;;
12840;SDS011;6487;48.626;12.486;2023-03-16T10:34:42;10.77;;;9.77;;
12840;SDS011;6487;48.626;12.486;2023-03-16T10:37:19;10.40;;;9.50;;
12840;SDS011;6487;48.626;12.486;2023-03-16T10:39:49;10.07;;;9.07;;
12840;SDS011;6487;48.626;12.486;2023-03-16T10:42:19;10.10;;;9.17;;
12840;SDS011;6487;48.626;12.486;2023-03-16T10:44:47;10.10;;;9.13;;
12840;SDS011;6487;48.626;12.486;2023-03-16T10:47:17;10.77;;;9.77;;
12840;SDS011;6487;48.626;12.486;2023-03-16T10:49:49;9.60;;;8.70;;
12840;SDS011;6487;48.626;12.486;2023-03-16T10:52:19;9.33;;;8.30;;
12840;SDS011;6487;48.626;12.486;2023-03-16T10:54:53;8.90;;;8.00;;
12840;SDS011;6487;48.626;12.486;2023-03-16T10:57:24;7.83;;;7.23;;
12840;SDS011;6487;48.626;12.486;2023-03-16T10:59:59;7.80;;;7.10;;
12840;SDS011;6487;48.626;12.486;2023-03-16T11:02:41;7.97;;;7.27;;
12840;SDS011;6487;48.626;12.486;2023-03-16T11:05:10;7.10;;;6.40;;
12840;SDS011;6487;48.626;12.486;2023-03-16T11:07:48;7.10;;;6.50;;
12840;SDS011;6487;48.626;12.486;2023-03-16T11:10:28;6.83;;;6.13;;
12840;SDS011;6487;48.626;12.486;2023-03-16T11:13:05;7.17;;;6.57;;
12840;SDS011;6487;48.626;12.486;2023-03-16T11:15:40;6.90;;;6.30;;
12840;SDS011;6487;48.626;12.486;2023-03-16T11:18:19;6.60;;;6.10;;
12840;SDS011;6487;48.626;12.486;2023-03-16T11:20:55;6.80;;;6.07;;
12840;SDS011;6487;48.626;12.486;2023-03-16T11:23:29;6.60;;;6.00;;
12840;SDS011;6487;48.626;12.486;2023-03-16T11:26:03;5.57;;;5.07;;
12840;SDS011;6487;48.626;12.486;2023-03-16T11:28:39;5.50;;;5.10;;
12840;SDS011;6487;48.626;12.486;2023-03-16T11:31:17;5.30;;;4.90;;
12840;SDS011;6487;48.626;12.486;2023-03-16T11:33:49;5.37;;;4.87;;
12840;SDS011;6487;48.626;12.486;2023-03-16T11:36:27;5.47;;;4.97;;
12840;SDS011;6487;48.626;12.486;2023-03-16T11:39:09;5.40;;;4.93;;
12840;SDS011;6487;48.626;12.486;2023-03-16T11:41:49;5.53;;;5.03;;
12840;SDS011;6487;48.626;12.486;2023-03-16T11:44:30;5.60;;;5.10;;
12840;SDS011;6487;48.626;12.486;2023-03-16T11:47:05;5.80;;;5.40;;
12840;SDS011;6487;48.626;12.486;2023-03-16T11:49:53;5.70;;;5.20;;
12840;SDS011;6487;48.626;12.486;2023-03-16T11:52:30;6.90;;;5.23;;
12840;SDS011;6487;48.626;12.486;2023-03-16T11:55:16;5.17;;;4.77;;
12840;SDS011;6487;48.626;12.486;2023-03-16T11:57:59;5.83;;;5.23;;
12840;SDS011;6487;48.626;12.486;2023-03-16T12:00:45;5.20;;;4.80;;
12840;SDS011;6487;48.626;12.486;2023-03-16T12:03:29;4.43;;;4.03;;
12840;SDS011;6487;48.626;12.486;2023-03-16T12:06:17;5.60;;;5.10;;
12840;SDS011;6487;48.626;12.486;2023-03-16T12:09:14;4.93;;;4.53;;
12840;SDS011;6487;48.626;12.486;2023-03-16T12:12:25;4.40;;;4.00;;
12840;SDS011;6487;48.626;12.486;2023-03-16T12:15:09;5.37;;;4.87;;
12840;SDS011;6487;48.626;12.486;2023-03-16T12:17:51;4.73;;;4.37;;
12840;SDS011;6487;48.626;12.486;2023-03-16T12:20:23;4.90;;;4.50;;
12840;SDS011;6487;48.626;12.486;2023-03-16T12:22:57;4.40;;;4.10;;
12840;SDS011;6487;48.626;12.486;2023-03-16T12:25:32;5.23;;;4.80;;
12840;SDS011;6487;48.626;12.486;2023-03-16T12:28:05;4.40;;;4.00;;
12840;SDS011;6487;48.626;12.486;2023-03-16T12:30:46;4.53;;;4.13;;
12840;SDS011;6487;48.626;12.486;2023-03-16T12:33:21;4.77;;;4.37;;
12840;SDS011;6487;48.626;12.486;2023-03-16T12:36:16;4.50;;;4.10;;
12840;SDS011;6487;48.626;12.486;2023-03-16T12:39:03;4.63;;;4.23;;
12840;SDS011;6487;48.626;12.486;2023-03-16T12:41:36;5.17;;;4.67;;
12840;SDS011;6487;48.626;12.486;2023-03-16T12:44:18;3.97;;;3.67;;
12840;SDS011;6487;48.626;12.486;2023-03-16T12:46:56;4.87;;;4.47;;
12840;SDS011;6487;48.626;12.486;2023-03-16T12:49:33;4.40;;;4.00;;
12840;SDS011;6487;48.626;12.486;2023-03-16T12:52:04;4.73;;;4.33;;
12840;SDS011;6487;48.626;12.486;2023-03-16T12:54:47;4.10;;;3.80;;
12840;SDS011;6487;48.626;12.486;2023-03-16T12:57:18;4.67;;;4.23;;
12840;SDS011;6487;48.626;12.486;2023-03-16T12:59:53;3.90;;;3.60;;
12840;SDS011;6487;48.626;12.486;2023-03-16T13:02:28;4.03;;;3.73;;
12840;SDS011;6487;48.626;12.486;2023-03-16T13:04:59;5.20;;;4.70;;
12840;SDS011;6487;48.626;12.486;2023-03-16T13:07:35;4.97;;;4.47;;
12840;SDS011;6487;48.626;12.486;2023-03-16T13:10:06;4.87;;;4.47;;
12840;SDS011;6487;48.626;12.486;2023-03-16T13:12:37;4.90;;;4.33;;
12840;SDS011;6487;48.626;12.486;2023-03-16T13:15:26;4.30;;;4.00;;
12840;SDS011;6487;48.626;12.486;2023-03-16T13:18:05;4.40;;;4.00;;
12840;SDS011;6487;48.626;12.486;2023-03-16T13:20:55;4.30;;;4.00;;
12840;SDS011;6487;48.626;12.486;2023-03-16T13:23:26;4.67;;;4.23;;
12840;SDS011;6487;48.626;12.486;2023-03-16T13:26:04;4.83;;;4.10;;
12840;SDS011;6487;48.626;12.486;2023-03-16T13:28:41;4.57;;;4.17;;
12840;SDS011;6487;48.626;12.486;2023-03-16T13:31:21;4.10;;;3.80;;
12840;SDS011;6487;48.626;12.486;2023-03-16T13:33:55;5.93;;;4.50;;
12840;SDS011;6487;48.626;12.486;2023-03-16T13:36:26;4.40;;;4.00;;
12840;SDS011;6487;48.626;12.486;2023-03-16T13:39:01;4.63;;;4.23;;
12840;SDS011;6487;48.626;12.486;2023-03-16T13:41:33;3.80;;;3.50;;
12840;SDS011;6487;48.626;12.486;2023-03-16T13:44:03;4.40;;;3.93;;
12840;SDS011;6487;48.626;12.486;2023-03-16T13:46:31;4.07;;;3.73;;
12840;SDS011;6487;48.626;12.486;2023-03-16T13:49:01;4.10;;;3.80;;
12840;SDS011;6487;48.626;12.486;2023-03-16T13:51:31;4.00;;;3.67;;
12840;SDS011;6487;48.626;12.486;2023-03-16T13:54:03;4.67;;;4.17;;
12840;SDS011;6487;48.626;12.486;2023-03-16T13:56:45;3.90;;;3.60;;
12840;SDS011;6487;48.626;12.486;2023-03-16T13:59:14;3.80;;;3.50;;
12840;SDS011;6487;48.626;12.486;2023-03-16T14:01:43;3.50;;;3.23;;
12840;SDS011;6487;48.626;12.486;2023-03-16T14:04:15;4.10;;;3.37;;
12840;SDS011;6487;48.626;12.486;2023-03-16T14:06:52;3.87;;;3.40;;
12840;SDS011;6487;48.626;12.486;2023-03-16T14:09:24;3.77;;;3.47;;
12840;SDS011;6487;48.626;12.486;2023-03-16T14:11:55;4.00;;;3.70;;
12840;SDS011;6487;48.626;12.486;2023-03-16T14:14:26;3.97;;;3.67;;
12840;SDS011;6487;48.626;12.486;2023-03-16T14:16:59;4.60;;;3.97;;
12840;SDS011;6487;48.626;12.486;2023-03-16T14:19:33;3.50;;;3.27;;
12840;SDS011;6487;48.626;12.486;2023-03-16T14:22:11;3.93;;;3.63;;
12840;SDS011;6487;48.626;12.486;2023-03-16T14:24:41;3.07;;;2.87;;
12840;SDS011;6487;48.626;12.486;2023-03-16T14:27:21;3.50;;;3.13;;
12840;SDS011;6487;48.626;12.486;2023-03-16T14:29:57;4.23;;;3.77;;
12840;SDS011;6487;48.626;12.486;2023-03-16T14:32:28;4.33;;;3.93;;
12840;SDS011;6487;48.626;12.486;2023-03-16T14:35:01;4.13;;;3.73;;
12840;SDS011;6487;48.626;12.486;2023-03-16T14:37:39;4.10;;;3.73;;
12840;SDS011;6487;48.626;12.486;2023-03-16T14:40:19;3.70;;;3.40;;
12840;SDS011;6487;48.626;12.486;2023-03-16T14:42:51;4.13;;;3.70;;
12840;SDS011;6487;48.626;12.486;2023-03-16T14:45:21;3.57;;;3.27;;
12840;SDS011;6487;48.626;12.486;2023-03-16T14:47:59;3.40;;;3.10;;
12840;SDS011;6487;48.626;12.486;2023-03-16T14:50:32;4.20;;;3.83;;
12840;SDS011;6487;48.626;12.486;2023-03-16T14:53:02;3.87;;;3.57;;
12840;SDS011;6487;48.626;12.486;2023-03-16T14:55:32;4.03;;;3.70;;
12840;SDS011;6487;48.626;12.486;2023-03-16T14:58:01;3.73;;;3.40;;
12840;SDS011;6487;48.626;12.486;2023-03-16T15:00:31;3.50;;;3.20;;
12840;SDS011;6487;48.626;12.486;2023-03-16T15:03:15;4.00;;;3.60;;
12840;SDS011;6487;48.626;12.486;2023-03-16T15:05:46;3.70;;;3.40;;
12840;SDS011;6487;48.626;12.486;2023-03-16T15:08:20;3.63;;;3.33;;
12840;SDS011;6487;48.626;12.486;2023-03-16T15:10:52;3.67;;;3.37;;
12840;SDS011;6487;48.626;12.486;2023-03-16T15:13:24;4.80;;;3.80;;
12840;SDS011;6487;48.626;12.486;2023-03-16T15:16:18;4.03;;;3.67;;
12840;SDS011;6487;48.626;12.486;2023-03-16T15:18:48;3.73;;;3.43;;
12840;SDS011;6487;48.626;12.486;2023-03-16T15:21:19;4.10;;;3.80;;